Time;durP1;ratioP1;P1;durP2;ratioP2;P2;SDS_P1;SDS_P2;PMS_P1;PMS_P2;Temp;Humidity;BMP_temperature;BMP_pressure;BME280_temperature;BME280_humidity;BME280_pressure;Samples;Min_cycle;Max_cycle;Signal;HPM_P1;HPM_P2
2021/07/30 03:13:19;;;;;;;8.50;4.47;;;;;;;22.36;53.21;99996.84;4799155;28;20113;-87
2021/07/30 03:15:55;;;;;;;18.87;4.62;;;;;;;22.58;52.39;99991.00;4252427;33;20093;-87
2021/07/30 03:18:32;;;;;;;6.37;3.72;;;;;;;22.37;51.51;99998.56;4253892;33;20154;-86
2021/07/30 03:21:00;;;;;;;10.90;4.32;;;;;;;22.25;51.30;99993.94;4253919;33;20110;-88
2021/07/30 03:23:40;;;;;;;9.93;4.65;;;;;;;22.02;53.14;99997.12;4254533;33;20077;-87
2021/07/30 04:01:47;;;;;;;17.37;6.65;;;;;;;21.33;57.31;100015.31;4249963;28;20112;-84
2021/07/30 04:04:15;;;;;;;15.00;5.18;;;;;;;22.10;55.53;100021.59;4245159;33;20512;-84
2021/07/30 06:03:22;;;;;;;17.52;7.55;;;;;;;36.52;27.71;99987.47;4499917;28;20114;-86
2021/07/30 11:22:43;;;;;;;6.03;4.70;;;;;;;45.58;17.59;99814.12;4706193;28;20087;-87
2021/07/30 11:25:15;;;;;;;13.52;6.12;;;;;;;45.58;17.56;99823.28;4241283;33;20132;-87
2021/07/30 11:27:57;;;;;;;11.18;5.62;;;;;;;44.92;17.66;99811.84;4228448;33;20074;-85
2021/07/30 11:30:31;;;;;;;7.90;6.55;;;;;;;45.24;17.42;99805.75;4230953;33;20166;-86
2021/07/30 11:33:07;;;;;;;9.60;5.93;;;;;;;45.54;17.36;99809.09;4230680;33;20600;-86
2021/07/30 11:36:14;;;;;;;9.52;5.25;;;;;;;45.59;17.25;99804.69;4231991;33;20117;-86
2021/07/30 11:39:18;;;;;;;11.93;5.87;;;;;;;45.86;17.26;99805.69;4231367;33;20137;-86
2021/07/30 11:41:53;;;;;;;12.20;6.18;;;;;;;45.78;16.28;99797.78;4229839;33;20098;-86
2021/07/30 11:45:07;;;;;;;9.32;5.65;;;;;;;45.50;17.75;99796.78;4232534;33;20461;-85
2021/07/30 11:47:49;;;;;;;8.50;5.18;;;;;;;45.49;17.15;99797.88;4218737;33;361410;-85
2021/07/30 11:50:38;;;;;;;7.60;5.12;;;;;;;45.56;17.54;99783.84;4231427;33;20113;-86
2021/07/30 11:53:46;;;;;;;8.50;5.50;;;;;;;45.68;16.91;99790.13;4231962;33;20090;-85
2021/07/30 11:56:23;;;;;;;6.68;5.37;;;;;;;46.00;16.34;99783.97;4233365;33;20090;-86
2021/07/30 11:58:58;;;;;;;8.07;5.50;;;;;;;45.53;17.59;99774.09;4232233;33;20110;-86
2021/07/30 12:01:26;;;;;;;11.90;5.00;;;;;;;45.54;16.54;99777.72;4231691;33;20482;-86
2021/07/30 12:04:06;;;;;;;5.80;5.30;;;;;;;43.78;18.69;99768.16;4230921;33;20469;-85
2021/07/30 12:07:19;;;;;;;9.43;4.97;;;;;;;43.50;18.17;99772.44;4231311;33;20091;-86
2021/07/30 12:09:47;;;;;;;6.65;5.25;;;;;;;44.43;18.22;99772.63;4232234;33;20117;-87
2021/07/30 12:12:15;;;;;;;15.57;5.90;;;;;;;41.86;19.59;99767.03;4232507;33;20465;-86
2021/07/30 12:14:48;;;;;;;7.20;5.43;;;;;;;42.13;19.85;99773.13;4231272;33;20765;-85
2021/07/30 12:17:16;;;;;;;11.15;5.30;;;;;;;42.45;18.99;99759.19;4219323;33;20090;-86
2021/07/30 12:19:54;;;;;;;36.00;6.85;;;;;;;43.16;19.36;99759.44;4218380;33;20095;-86
2021/07/30 12:22:33;;;;;;;9.77;5.40;;;;;;;43.63;19.02;99756.75;4218241;33;20137;-86
2021/07/30 12:25:01;;;;;;;10.07;5.30;;;;;;;43.74;18.07;99748.44;4218924;34;20090;-86
2021/07/30 12:27:28;;;;;;;6.85;4.87;;;;;;;44.17;17.71;99744.38;4220417;34;20398;-86
2021/07/30 12:29:56;;;;;;;10.38;5.68;;;;;;;44.51;16.42;99736.25;4219281;34;20115;-86
2021/07/30 12:53:23;;;;;;;7.90;6.40;;;;;;;42.53;19.71;99714.66;4227356;28;20124;-88
2021/07/30 12:55:58;;;;;;;10.95;5.53;;;;;;;41.72;20.23;99716.69;4217729;34;20099;-87
2021/07/30 12:58:53;;;;;;;8.43;5.72;;;;;;;41.93;19.45;99720.94;4228161;33;20122;-87
2021/07/30 13:23:04;;;;;;;10.52;5.87;;;;;;;43.20;18.21;99683.25;4219947;34;20093;-87
2021/07/30 13:25:35;;;;;;;11.10;6.45;;;;;;;43.22;18.26;99678.34;4229071;33;20133;-87
2021/07/30 13:28:04;;;;;;;9.50;6.28;;;;;;;43.82;18.25;99678.03;4219216;34;20102;-87
2021/07/30 13:30:33;;;;;;;15.52;6.78;;;;;;;42.74;18.59;99671.03;4218164;34;20470;-87
2021/07/30 13:33:02;;;;;;;6.85;5.62;;;;;;;42.98;19.16;99670.00;4219077;34;20179;-87
2021/07/30 13:35:34;;;;;;;11.65;5.95;;;;;;;43.26;19.24;99658.25;4219194;34;20201;-87
2021/07/30 13:38:03;;;;;;;9.50;5.78;;;;;;;43.48;18.48;99652.94;4218379;34;20164;-87
2021/07/30 13:40:31;;;;;;;8.93;6.07;;;;;;;43.19;18.79;99642.87;4218012;34;20078;-87
2021/07/30 13:43:06;;;;;;;9.85;6.72;;;;;;;42.23;19.22;99642.84;4217612;33;20167;-86
2021/07/30 13:45:38;;;;;;;7.68;5.70;;;;;;;41.65;19.63;99644.25;4218716;34;20143;-87
2021/07/30 13:48:07;;;;;;;6.85;5.28;;;;;;;41.80;19.86;99635.56;4218987;34;20094;-87
2021/07/30 13:50:35;;;;;;;10.00;5.22;;;;;;;42.20;19.51;99638.66;4217250;33;20087;-86
2021/07/30 13:53:03;;;;;;;9.65;6.78;;;;;;;42.54;18.94;99635.44;4217234;34;20106;-87
2021/07/30 13:55:30;;;;;;;9.43;6.18;;;;;;;42.93;19.63;99630.34;4218605;34;20114;-86
2021/07/30 13:57:57;;;;;;;9.57;6.45;;;;;;;42.93;18.59;99628.41;4217037;34;20094;-87
2021/07/30 14:00:24;;;;;;;7.97;6.37;;;;;;;42.95;18.77;99631.78;4216990;34;20121;-87
2021/07/30 14:02:52;;;;;;;6.87;6.03;;;;;;;43.22;18.87;99629.41;4217203;34;20148;-87
2021/07/30 14:05:19;;;;;;;8.20;5.62;;;;;;;43.38;18.36;99621.47;4218275;34;20489;-86
2021/07/30 14:07:46;;;;;;;7.05;5.70;;;;;;;42.72;18.18;99620.69;4218160;34;20112;-87
2021/07/30 14:10:15;;;;;;;8.82;6.45;;;;;;;43.13;17.85;99616.19;4217582;34;20598;-86
2021/07/30 14:12:43;;;;;;;9.93;6.65;;;;;;;43.47;18.14;99622.75;4217887;34;20126;-86
2021/07/30 14:15:15;;;;;;;9.77;6.43;;;;;;;43.35;18.07;99616.41;4218127;34;20267;-86
2021/07/30 14:17:42;;;;;;;6.97;5.57;;;;;;;43.15;18.75;99619.56;4218238;34;20110;-86
2021/07/30 14:20:11;;;;;;;8.80;5.78;;;;;;;43.53;17.79;99608.81;4218113;34;20470;-86
2021/07/30 14:22:40;;;;;;;9.93;7.12;;;;;;;43.65;18.18;99619.03;4217781;34;20117;-87
2021/07/30 14:25:07;;;;;;;9.43;6.60;;;;;;;43.56;17.36;99617.72;4216571;34;20118;-87
2021/07/30 14:27:35;;;;;;;10.43;6.70;;;;;;;43.64;18.00;99612.66;4217470;34;20086;-87
2021/07/30 14:30:05;;;;;;;9.68;6.72;;;;;;;43.83;17.24;99604.16;4214740;34;20095;-87
2021/07/30 14:32:36;;;;;;;8.07;6.05;;;;;;;43.39;17.52;99604.63;4216383;34;20166;-87
2021/07/30 14:35:04;;;;;;;9.63;6.45;;;;;;;43.14;17.71;99602.13;4216145;33;20111;-86
2021/07/30 14:37:32;;;;;;;;;;;;;;;42.82;18.22;99604.37;4216406;34;20102;-86
2021/07/30 14:40:00;;;;;;;8.00;6.95;;;;;;;42.73;18.11;99600.31;4215493;34;20026;-86
2021/07/30 14:42:27;;;;;;;10.38;8.00;;;;;;;42.54;18.72;99605.06;4215924;34;20115;-87
2021/07/30 15:06:12;;;;;;;10.48;6.32;;;;;;;42.03;19.87;99592.62;4224389;28;20172;-85
2021/07/30 15:08:40;;;;;;;10.88;6.03;;;;;;;42.06;19.79;99590.22;4241955;33;20106;-86
2021/07/30 15:11:10;;;;;;;9.95;6.78;;;;;;;41.87;19.71;99583.06;4231800;33;20102;-85
2021/07/30 15:13:38;;;;;;;9.52;5.97;;;;;;;41.38;20.47;99595.94;4231934;33;20097;-86
2021/07/30 15:16:05;;;;;;;9.07;5.60;;;;;;;41.10;20.16;99605.59;4230211;33;20177;-86
2021/07/30 15:18:36;;;;;;;7.93;6.00;;;;;;;41.08;20.65;99596.69;4230426;33;20420;-87
2021/07/30 15:21:04;;;;;;;13.07;6.22;;;;;;;40.77;20.51;99597.59;4230222;33;20116;-86
2021/07/30 15:23:32;;;;;;;11.65;6.40;;;;;;;40.50;20.67;99592.28;4231572;33;20108;-87
2021/07/30 15:25:59;;;;;;;8.68;5.93;;;;;;;40.27;21.04;99592.03;4231395;33;20166;-86
2021/07/30 15:28:26;;;;;;;9.43;5.93;;;;;;;40.42;21.17;99587.06;4231546;33;20098;-86
2021/07/30 15:30:53;;;;;;;10.63;5.70;;;;;;;40.42;21.65;99589.81;4231579;33;20481;-85
2021/07/30 15:33:20;;;;;;;7.47;5.82;;;;;;;40.31;21.36;99585.88;4230376;33;20141;-87
2021/07/30 15:35:47;;;;;;;10.63;5.70;;;;;;;40.30;21.41;99591.56;4231335;33;21177;-87
2021/07/30 15:38:27;;;;;;;11.77;6.30;;;;;;;39.91;21.62;99587.97;4231753;33;20101;-86
2021/07/30 15:40:54;;;;;;;8.27;6.28;;;;;;;39.92;22.79;99590.53;4229824;33;20185;-86
2021/07/30 15:43:33;;;;;;;9.82;7.82;;;;;;;39.99;21.53;99584.97;4231456;33;20153;-86
2021/07/30 15:46:06;;;;;;;6.55;5.82;;;;;;;40.03;21.82;99586.22;4230134;33;20117;-86
2021/07/30 15:48:34;;;;;;;10.15;6.85;;;;;;;39.32;22.19;99573.38;4231568;33;20106;-87
2021/07/30 15:51:01;;;;;;;;;;;;;;;39.79;22.29;99573.25;4231714;33;20101;-87
2021/07/30 15:53:29;;;;;;;7.75;6.45;;;;;;;40.06;21.41;99572.00;4230026;33;19969;-86
2021/07/30 15:55:56;;;;;;;7.62;6.18;;;;;;;40.05;21.54;99575.00;4231417;33;20094;-86
2021/07/30 15:58:22;;;;;;;10.80;6.32;;;;;;;39.82;21.35;99570.06;4230173;33;20778;-86
2021/07/30 16:00:50;;;;;;;9.93;6.37;;;;;;;39.78;21.85;99569.66;4230131;33;20517;-86
2021/07/30 16:03:17;;;;;;;6.93;6.20;;;;;;;39.67;22.11;99573.87;4231704;33;20157;-86
2021/07/30 16:05:44;;;;;;;8.65;6.62;;;;;;;39.64;22.21;99568.84;4231443;33;20095;-87
2021/07/30 16:08:11;;;;;;;8.48;6.53;;;;;;;39.54;22.49;99568.47;4231357;33;20115;-86
2021/07/30 16:10:46;;;;;;;9.98;6.40;;;;;;;39.41;22.98;99563.84;4231260;33;20120;-86
2021/07/30 16:13:13;;;;;;;10.65;6.62;;;;;;;39.24;23.46;99565.34;4230168;33;20116;-85
2021/07/30 16:15:40;;;;;;;7.47;6.40;;;;;;;39.12;23.37;99564.31;4231442;33;20500;-87
2021/07/30 16:18:07;;;;;;;8.85;6.03;;;;;;;39.06;23.64;99563.28;4231222;33;20102;-86
2021/07/30 16:20:34;;;;;;;8.93;6.50;;;;;;;38.97;23.73;99567.31;4231337;33;20106;-86
2021/07/30 16:23:14;;;;;;;7.82;5.80;;;;;;;38.68;24.86;99568.59;4230990;33;20166;-86
2021/07/30 16:25:41;;;;;;;9.73;5.78;;;;;;;38.47;25.86;99565.00;4229948;33;20094;-86
2021/07/30 16:28:08;;;;;;;9.30;6.22;;;;;;;37.75;26.36;99566.50;4229954;33;20125;-86
2021/07/30 16:30:35;;;;;;;8.07;6.37;;;;;;;37.98;27.30;99559.84;4231398;33;20162;-86
2021/07/30 16:33:01;;;;;;;9.55;5.65;;;;;;;37.62;27.46;99567.31;4229882;33;20461;-85
2021/07/30 16:36:19;;;;;;;10.13;5.60;;;;;;;37.48;27.23;99568.28;4231358;33;20086;-85
2021/07/30 16:38:47;;;;;;;8.55;6.43;;;;;;;37.13;27.43;99578.41;4199563;33;20103;-86
2021/07/30 16:41:16;;;;;;;11.73;5.82;;;;;;;36.63;28.83;99567.47;4231108;33;20174;-85
2021/07/30 16:43:43;;;;;;;;;;;;;;;36.64;28.40;99574.63;4230172;33;20113;-86
2021/07/30 16:46:11;;;;;;;9.52;6.20;;;;;;;37.01;28.42;99578.12;4231277;33;20037;-86
2021/07/30 16:48:39;;;;;;;13.53;6.30;;;;;;;36.71;28.58;99578.28;4234246;28;20358;-85
2021/07/30 16:51:11;;;;;;;13.57;6.37;;;;;;;36.77;28.64;99582.09;4241802;33;20149;-88
2021/07/30 16:53:39;;;;;;;9.25;5.35;;;;;;;36.75;28.98;99581.47;4230102;33;20805;-85
2021/07/30 16:56:16;;;;;;;6.83;5.23;;;;;;;36.65;29.21;99575.47;4241618;33;20162;-86
2021/07/30 16:58:45;;;;;;;8.70;5.75;;;;;;;36.23;29.48;99569.81;4231875;33;20149;-86
2021/07/30 17:01:13;;;;;;;7.57;5.90;;;;;;;36.33;30.19;99572.25;4230410;33;20806;-86
2021/07/30 17:03:44;;;;;;;6.65;5.22;;;;;;;36.32;30.37;99573.25;4231921;33;20143;-86
2021/07/30 17:06:17;;;;;;;9.52;6.20;;;;;;;36.06;30.11;99580.19;4233427;33;20109;-86
2021/07/30 17:08:45;;;;;;;13.62;7.60;;;;;;;36.05;30.25;99585.81;4243700;33;20113;-86
2021/07/30 17:11:12;;;;;;;10.38;6.18;;;;;;;36.03;30.61;99590.59;4244088;33;20110;-86
2021/07/30 17:13:41;;;;;;;14.57;5.40;;;;;;;35.86;30.57;99582.66;4232781;33;20772;-86
2021/07/30 17:16:20;;;;;;;12.35;6.15;;;;;;;35.70;31.18;99585.59;4232994;33;20123;-88
2021/07/30 17:18:48;;;;;;;13.43;6.90;;;;;;;35.37;33.20;99586.00;4235996;33;20133;-86
2021/07/30 17:21:16;;;;;;;14.57;6.28;;;;;;;35.57;32.72;99585.44;4235461;33;20201;-87
2021/07/30 17:23:43;;;;;;;16.63;6.93;;;;;;;35.45;33.33;99591.34;4246387;33;20121;-87
2021/07/30 17:26:13;;;;;;;12.50;6.70;;;;;;;35.47;33.04;99581.09;4246886;33;20100;-87
2021/07/30 17:28:42;;;;;;;12.00;7.15;;;;;;;35.33;33.88;99592.00;4246621;33;20526;-86
2021/07/30 17:31:09;;;;;;;17.50;6.90;;;;;;;35.44;33.62;99594.25;4247090;33;20177;-87
2021/07/30 17:33:41;;;;;;;27.13;7.32;;;;;;;35.44;33.70;99586.06;4245021;33;20095;-87
2021/07/30 17:38:42;;;;;;;22.80;6.65;;;;;;;35.34;34.42;99589.09;4224980;34;20154;-88
2021/07/30 17:41:14;;;;;;;;;;;;;;;35.36;34.77;99589.75;4226315;33;20110;-88
2021/07/30 17:43:45;;;;;;;15.32;6.53;;;;;;;35.46;34.06;99584.84;4225630;34;19974;-88
2021/07/30 17:46:24;;;;;;;23.08;8.27;;;;;;;35.25;34.04;99582.87;4226431;34;20066;-88
2021/07/30 17:48:59;;;;;;;14.55;7.30;;;;;;;35.03;34.75;99584.66;4236757;33;20134;-88
2021/07/30 17:51:36;;;;;;;26.25;8.98;;;;;;;34.70;35.73;99591.44;4211461;34;20106;-89
2021/07/30 17:54:25;;;;;;;17.12;7.07;;;;;;;34.76;35.82;99587.97;4189985;34;20107;-88
2021/07/30 17:57:28;;;;;;;11.70;6.37;;;;;;;34.88;35.15;99583.75;4215577;34;20133;-89
2021/07/30 18:00:13;;;;;;;14.00;6.03;;;;;;;34.82;35.03;99589.97;4213691;34;20087;-88
2021/07/30 18:02:59;;;;;;;16.02;6.90;;;;;;;34.79;35.40;99590.34;4215337;34;20106;-88
2021/07/30 18:08:11;;;;;;;11.02;6.40;;;;;;;34.73;35.22;99582.87;4209261;34;20166;-88
2021/07/30 18:10:42;;;;;;;11.93;6.65;;;;;;;34.77;34.89;99578.78;4210915;34;20079;-88
2021/07/30 18:13:12;;;;;;;16.65;7.20;;;;;;;34.73;35.34;99574.69;4211160;34;20127;-88
2021/07/30 18:15:45;;;;;;;16.65;7.93;;;;;;;34.81;35.29;99577.34;4210075;34;20085;-88
2021/07/30 18:18:41;;;;;;;15.07;6.97;;;;;;;34.80;35.53;99573.78;4216392;28;20094;-88
2021/07/30 18:21:51;;;;;;;16.58;7.43;;;;;;;34.58;35.59;99572.78;4232214;33;20086;-89
2021/07/30 18:25:03;;;;;;;18.95;7.85;;;;;;;34.56;36.12;99569.41;4242176;33;20133;-88
2021/07/30 18:27:56;;;;;;;18.83;7.68;;;;;;;34.51;35.97;99563.62;4243536;33;20070;-88
2021/07/30 18:41:50;;;;;;;15.15;6.97;;;;;;;33.94;37.85;99572.19;4116387;28;20106;-89
2021/07/30 18:44:32;;;;;;;13.15;7.50;;;;;;;33.70;38.32;99570.47;4241882;33;20082;-87
2021/07/30 18:47:12;;;;;;;15.32;8.05;;;;;;;33.73;38.54;99574.69;4253913;33;20086;-89
2021/07/30 18:50:12;;;;;;;15.80;7.80;;;;;;;33.44;39.34;99581.59;4243333;33;20081;-87
2021/07/30 18:52:49;;;;;;;16.92;8.50;;;;;;;33.37;39.55;99580.63;4252921;33;20066;-88
2021/07/30 18:55:47;;;;;;;11.95;8.23;;;;;;;32.86;40.87;99588.22;4242534;33;20109;-88
2021/07/30 18:58:21;;;;;;;17.05;7.90;;;;;;;32.65;41.15;99581.44;4253909;33;20126;-87
2021/07/30 19:01:00;;;;;;;18.20;9.68;;;;;;;32.50;41.01;99586.72;4242617;33;20067;-88
2021/07/30 19:04:00;;;;;;;;;;;;;;;32.38;41.62;99584.44;4243648;33;20085;-89
2021/07/30 19:06:50;;;;;;;12.10;7.50;;;;;;;32.43;41.37;99584.81;4241890;33;19974;-88
2021/07/30 19:09:31;;;;;;;17.08;6.85;;;;;;;32.02;41.41;99587.47;4252530;33;20102;-89
2021/07/30 19:15:18;;;;;;;11.23;7.12;;;;;;;32.11;41.82;99594.63;4227677;33;20097;-88
2021/07/30 19:18:16;;;;;;;11.35;6.18;;;;;;;32.15;40.47;99584.25;4175100;34;20124;-88
2021/07/30 19:21:06;;;;;;;8.30;6.35;;;;;;;32.16;40.51;99605.84;4228057;34;20124;-88
2021/07/30 19:24:13;;;;;;;10.05;6.95;;;;;;;32.10;41.61;99603.78;4228557;34;20067;-88
2021/07/30 19:27:54;;;;;;;15.35;7.60;;;;;;;32.02;41.99;99611.91;4228371;33;20078;-88
2021/07/30 19:30:40;;;;;;;14.02;7.12;;;;;;;32.15;40.83;99615.03;4444386;28;20138;-87
2021/07/30 19:33:22;;;;;;;11.45;7.05;;;;;;;31.95;42.00;99617.19;4245191;33;20082;-87
2021/07/30 19:36:41;;;;;;;;;;;;;;;;;;;;;
2021/07/30 19:39:56;;;;;;;17.30;8.02;;;;;;;31.84;42.09;99609.28;4256186;33;20098;-88
2021/07/30 19:42:32;;;;;;;13.98;7.97;;;;;;;31.82;41.66;99601.28;4253227;33;20125;-87
2021/07/30 19:45:22;;;;;;;10.57;7.22;;;;;;;31.88;41.55;99602.50;4242416;33;20135;-88
2021/07/30 19:48:21;;;;;;;14.10;7.50;;;;;;;31.92;41.51;99600.38;4253049;33;20110;-88
2021/07/30 19:51:02;;;;;;;14.55;7.68;;;;;;;31.42;43.18;99600.16;4243662;33;20066;-87
2021/07/30 19:54:14;;;;;;;11.70;7.70;;;;;;;31.01;43.76;99582.75;4244318;33;20116;-87
2021/07/30 19:57:09;;;;;;;15.80;9.18;;;;;;;31.11;43.60;99599.75;4242976;33;20078;-87
2021/07/30 19:59:51;;;;;;;13.75;8.57;;;;;;;30.85;42.84;99604.34;4253051;33;20106;-87
2021/07/30 20:02:26;;;;;;;15.80;8.27;;;;;;;30.90;44.06;99597.44;4242959;33;20091;-88
2021/07/30 20:05:30;;;;;;;12.77;7.62;;;;;;;30.63;43.44;99605.69;4241514;33;20114;-87
2021/07/30 20:08:42;;;;;;;12.77;6.75;;;;;;;30.45;44.82;99603.00;4237149;33;20533;-87
2021/07/30 20:11:33;;;;;;;12.02;8.30;;;;;;;30.41;44.38;99605.13;4242533;33;20098;-87
2021/07/30 20:15:00;;;;;;;;;;;;;;;;;;;;;
2021/07/30 20:17:56;;;;;;;12.32;7.40;;;;;;;30.57;43.79;99614.44;4237403;33;20110;-87
2021/07/30 20:21:05;;;;;;;15.10;6.93;;;;;;;30.55;43.85;99612.72;4252475;33;20799;-87
2021/07/30 20:24:02;;;;;;;13.93;8.80;;;;;;;30.72;43.27;99607.44;4232052;33;20121;-87
2021/07/30 20:27:38;;;;;;;16.50;8.23;;;;;;;30.71;43.67;99609.31;4204779;34;20161;-87
2021/07/30 20:30:48;;;;;;;16.62;8.45;;;;;;;30.77;43.53;99611.38;4240290;33;20126;-87
2021/07/30 20:33:43;;;;;;;15.55;8.15;;;;;;;30.81;43.75;99602.97;4229301;33;20137;-86
2021/07/30 20:37:02;;;;;;;20.80;8.48;;;;;;;30.62;44.09;99595.81;4240117;33;20092;-87
2021/07/30 20:49:07;;;;;;;21.62;9.38;;;;;;;29.54;46.25;99571.34;4228142;34;20092;-88
2021/07/30 20:52:29;;;;;;;13.62;8.38;;;;;;;29.32;46.88;99577.13;4219672;34;20239;-87
2021/07/30 20:55:38;;;;;;;11.50;8.35;;;;;;;28.98;45.98;99567.69;4226412;34;20136;-86
2021/07/30 20:58:49;;;;;;;10.68;8.10;;;;;;;29.14;45.26;99567.09;4228847;34;20075;-87
2021/07/30 21:02:10;;;;;;;13.32;6.60;;;;;;;29.02;44.56;99565.56;4229862;34;20930;-86
2021/07/30 21:08:27;;;;;;;13.68;7.97;;;;;;;29.32;45.36;99560.91;4230196;34;20106;-86
2021/07/30 21:23:01;;;;;;;13.60;7.78;;;;;;;29.37;45.56;99539.66;4254031;33;20126;-87
2021/07/30 21:26:20;;;;;;;19.05;8.10;;;;;;;29.29;46.03;99539.56;4235920;33;20126;-87
2021/07/30 21:43:19;;;;;;;12.50;7.57;;;;;;;28.62;47.20;99573.87;4147843;34;20130;-87
2021/07/30 21:46:55;;;;;;;9.27;7.12;;;;;;;28.41;46.88;99585.69;4140898;34;20098;-87
2021/07/30 21:49:57;;;;;;;15.63;7.68;;;;;;;28.71;45.13;99597.37;4158519;34;20131;-86
2021/07/30 22:29:10;;;;;;;14.38;8.63;;;;;;;28.61;48.14;99597.34;1077496;28;20686;-87
2021/07/30 22:38:38;;;;;;;;;;;;;;;;;;;;;
2021/07/30 22:42:25;;;;;;;10.52;8.32;;;;;;;27.93;48.94;99620.75;4246149;33;20109;-85
2021/07/30 22:45:50;;;;;;;12.50;6.50;;;;;;;27.87;49.08;99624.00;4245518;33;20208;-86
2021/07/30 22:49:47;;;;;;;;;;;;;;;;;;;;;
2021/07/30 22:52:54;;;;;;;16.02;8.90;;;;;;;27.53;49.54;99679.13;4170418;34;20100;-86
2021/07/30 22:56:04;;;;;;;13.68;8.40;;;;;;;27.63;47.99;99687.25;4177028;34;20269;-86
2021/07/30 22:58:52;;;;;;;9.77;7.25;;;;;;;27.79;48.62;99690.31;4175182;34;20094;-87
2021/07/30 23:41:36;;;;;;;8.65;4.85;;;;;;;26.08;58.32;99799.94;4497487;26;283136;-85
2021/07/30 23:44:03;;;;;;;11.60;5.72;;;;;;;26.08;58.32;99799.94;4460170;31;20131;-85
2021/07/30 23:46:30;;;;;;;10.77;5.15;;;;;;;25.19;59.88;99809.53;4532052;31;20091;-85
2021/07/30 23:48:58;;;;;;;14.13;5.70;;;;;;;25.52;58.86;99802.53;4533050;31;20105;-85
2021/07/30 23:51:25;;;;;;;13.60;6.18;;;;;;;25.46;62.94;99794.94;4527662;31;20113;-85
2021/07/30 23:53:52;;;;;;;12.10;6.15;;;;;;;25.52;63.69;99787.25;4527323;31;20106;-86
2021/07/30 23:56:19;;;;;;;13.70;6.05;;;;;;;25.57;61.57;99801.19;4527310;31;20464;-87
2021/07/30 23:58:47;;;;;;;14.57;6.15;;;;;;;25.40;64.80;99772.06;4527359;31;20118;-86
